Time;durP1;ratioP1;P1;durP2;ratioP2;P2;SDS_P1;SDS_P2;PMS_P1;PMS_P2;Temp;Humidity;BMP_temperature;BMP_pressure;BME280_temperature;BME280_humidity;BME280_pressure;Samples;Min_cycle;Max_cycle;Signal;HPM_P1;HPM_P2
2023/07/11 00:02:05;;;;;;;13.10;5.72;;;30.50;53.60;;;;;;6214810;23;20008;-77
2023/07/11 00:04:34;;;;;;;10.93;5.53;;;30.40;53.60;;;;;;6216345;23;20024;-78
2023/07/11 00:07:00;;;;;;;11.68;4.53;;;30.40;53.50;;;;;;6216283;23;20009;-77
2023/07/11 00:09:25;;;;;;;12.45;5.47;;;30.40;53.60;;;;;;6215261;23;20047;-76
2023/07/11 00:11:51;;;;;;;12.32;5.60;;;30.40;53.80;;;;;;6216286;23;20160;-78
2023/07/11 00:14:17;;;;;;;14.18;5.65;;;30.40;53.60;;;;;;6216239;23;20075;-78
2023/07/11 00:16:43;;;;;;;14.15;5.63;;;30.30;53.60;;;;;;6189389;23;20005;-77
2023/07/11 00:19:10;;;;;;;13.13;5.95;;;30.30;53.50;;;;;;6216109;23;20011;-79
2023/07/11 00:21:36;;;;;;;12.85;5.97;;;30.20;53.60;;;;;;6216336;23;20035;-78
2023/07/11 00:24:03;;;;;;;15.35;6.38;;;30.20;53.60;;;;;;6216008;23;20057;-78
2023/07/11 00:26:33;;;;;;;13.35;6.30;;;30.10;53.90;;;;;;6216002;23;20423;-78
2023/07/11 00:29:16;;;;;;;16.80;5.95;;;30.10;53.80;;;;;;6217123;23;20012;-77
2023/07/11 00:31:42;;;;;;;13.98;5.93;;;30.10;52.90;;;;;;6215792;23;20016;-77
2023/07/11 00:34:08;;;;;;;13.40;5.85;;;30.00;53.80;;;;;;6215932;23;20015;-78
2023/07/11 00:36:34;;;;;;;16.90;6.15;;;29.90;53.80;;;;;;6215515;23;20004;-77
2023/07/11 00:38:59;;;;;;;11.77;5.75;;;29.80;53.80;;;;;;6215567;23;20039;-78
2023/07/11 00:41:25;;;;;;;13.57;5.50;;;29.80;53.60;;;;;;6215676;23;19996;-75
2023/07/11 00:43:51;;;;;;;20.73;13.02;;;29.80;53.40;;;;;;6215492;23;20469;-77
2023/07/11 00:46:18;;;;;;;15.13;6.57;;;29.80;53.40;;;;;;6215633;23;20004;-78
2023/07/11 00:48:57;;;;;;;12.32;5.90;;;29.80;53.40;;;;;;6215723;23;20011;-77
2023/07/11 00:51:36;;;;;;;10.45;5.57;;;29.80;53.20;;;;;;6189043;23;20112;-77
2023/07/11 00:54:04;;;;;;;10.98;5.65;;;29.80;53.30;;;;;;6215292;23;20012;-78
2023/07/11 00:56:36;;;;;;;13.80;6.65;;;29.80;53.30;;;;;;6189076;23;20013;-78
2023/07/11 00:59:02;;;;;;;12.07;5.90;;;29.80;53.30;;;;;;6215690;23;20312;-78
2023/07/11 01:01:28;;;;;;;12.68;5.35;;;29.80;53.50;;;;;;6215510;23;20035;-78
2023/07/11 01:03:55;;;;;;;12.25;6.03;;;29.80;53.70;;;;;;6215471;23;20426;-77
2023/07/11 01:06:25;;;;;;;14.77;5.75;;;29.80;53.90;;;;;;6215501;23;20486;-78
2023/07/11 01:08:53;;;;;;;12.25;5.63;;;29.80;53.80;;;;;;6215426;23;20036;-77
2023/07/11 01:11:21;;;;;;;11.13;5.78;;;29.70;53.80;;;;;;6215629;23;20028;-78
2023/07/11 01:13:46;;;;;;;16.88;6.43;;;29.80;53.90;;;;;;6215398;23;20015;-78
2023/07/11 01:16:12;;;;;;;11.98;6.07;;;29.80;54.00;;;;;;6215254;23;20415;-76
2023/07/11 01:18:38;;;;;;;17.63;5.80;;;29.70;54.00;;;;;;6215516;23;20000;-78
2023/07/11 01:21:04;;;;;;;12.27;5.53;;;29.60;54.10;;;;;;6215466;23;20393;-76
2023/07/11 01:23:31;;;;;;;13.93;5.63;;;29.60;54.20;;;;;;6215531;23;20004;-78
2023/07/11 01:26:05;;;;;;;14.05;5.95;;;29.60;54.20;;;;;;6215400;23;20008;-77
2023/07/11 01:28:31;;;;;;;11.23;5.70;;;29.60;54.10;;;;;;6215091;23;20005;-77
2023/07/11 01:30:57;;;;;;;12.30;5.90;;;29.60;54.20;;;;;;6215273;23;20322;-78
2023/07/11 01:33:24;;;;;;;10.45;5.30;;;29.50;54.20;;;;;;6215264;23;20008;-78
2023/07/11 01:35:52;;;;;;;11.25;5.55;;;29.50;54.20;;;;;;6215163;23;20031;-78
2023/07/11 01:38:19;;;;;;;9.65;5.70;;;29.50;54.10;;;;;;6215414;23;20032;-76
2023/07/11 01:40:46;;;;;;;13.75;6.13;;;29.40;54.20;;;;;;6215278;23;20014;-76
2023/07/11 01:43:12;;;;;;;13.32;5.43;;;29.40;54.30;;;;;;6215147;23;20007;-77
2023/07/11 01:45:37;;;;;;;11.45;5.75;;;29.40;54.20;;;;;;6215359;23;20016;-77
2023/07/11 01:48:04;;;;;;;13.88;5.68;;;29.40;54.30;;;;;;6215184;23;20000;-77
2023/07/11 01:50:29;;;;;;;12.80;6.05;;;29.40;54.40;;;;;;6214985;23;20316;-77
2023/07/11 01:52:55;;;;;;;12.50;5.28;;;29.30;54.60;;;;;;6214997;23;20100;-76
2023/07/11 01:55:21;;;;;;;12.05;5.50;;;29.30;54.80;;;;;;6215027;23;20001;-78
2023/07/11 01:57:46;;;;;;;11.18;5.43;;;29.30;54.90;;;;;;6215041;23;20000;-78
2023/07/11 02:00:14;;;;;;;11.82;5.97;;;29.30;55.00;;;;;;6214881;23;20446;-77
2023/07/11 02:02:40;;;;;;;13.45;5.65;;;29.30;55.10;;;;;;6214904;23;20060;-74
2023/07/11 02:05:06;;;;;;;14.10;5.72;;;29.30;54.80;;;;;;6215190;23;20001;-78
2023/07/11 02:07:32;;;;;;;10.60;5.47;;;29.30;54.90;;;;;;6214849;23;20434;-77
2023/07/11 02:09:57;;;;;;;10.25;5.18;;;29.30;55.00;;;;;;6215017;23;20074;-78
2023/07/11 02:12:23;;;;;;;12.15;5.32;;;29.30;55.00;;;;;;6214831;23;20012;-77
2023/07/11 02:14:49;;;;;;;12.93;5.82;;;29.20;55.30;;;;;;6214786;23;19996;-77
2023/07/11 02:17:15;;;;;;;16.25;5.57;;;29.30;55.50;;;;;;6214541;23;20008;-77
2023/07/11 02:19:41;;;;;;;9.13;5.78;;;29.20;54.80;;;;;;6214890;23;20012;-77
2023/07/11 02:22:07;;;;;;;10.30;5.45;;;29.20;54.90;;;;;;6214866;23;20031;-76
2023/07/11 02:24:33;;;;;;;8.07;5.15;;;29.20;54.90;;;;;;6214293;23;20311;-77
2023/07/11 02:26:59;;;;;;;14.77;5.30;;;29.20;54.70;;;;;;6214812;23;20012;-78
2023/07/11 02:29:25;;;;;;;11.45;6.03;;;29.20;54.80;;;;;;6214978;23;19996;-76
2023/07/11 02:31:50;;;;;;;11.65;5.63;;;29.10;54.60;;;;;;6214672;23;20332;-77
2023/07/11 02:34:16;;;;;;;9.93;4.93;;;29.10;54.60;;;;;;6214635;23;20059;-78
2023/07/11 02:36:42;;;;;;;11.18;5.32;;;29.10;54.60;;;;;;6214235;23;20004;-76
2023/07/11 02:39:07;;;;;;;9.93;5.03;;;29.00;54.60;;;;;;6214679;23;20335;-77
2023/07/11 02:41:33;;;;;;;11.93;5.47;;;29.00;54.60;;;;;;6214729;23;20071;-77
2023/07/11 02:43:59;;;;;;;12.43;5.65;;;29.00;54.60;;;;;;6214684;23;20009;-76
2023/07/11 02:46:25;;;;;;;8.75;5.13;;;29.00;54.60;;;;;;6214514;23;20001;-75
2023/07/11 02:48:51;;;;;;;10.48;5.13;;;28.90;54.60;;;;;;6214307;23;20005;-77
2023/07/11 02:51:17;;;;;;;12.80;5.35;;;28.90;54.80;;;;;;6214433;23;20004;-76
2023/07/11 02:53:43;;;;;;;17.88;6.07;;;28.90;54.80;;;;;;6214369;23;20012;-77
2023/07/11 02:56:09;;;;;;;9.70;5.47;;;28.80;55.00;;;;;;6214791;23;20031;-77
2023/07/11 02:58:35;;;;;;;12.77;5.35;;;28.70;55.30;;;;;;6214391;23;20396;-77
2023/07/11 03:01:02;;;;;;;10.77;5.60;;;28.70;55.50;;;;;;6214423;23;20431;-76
2023/07/11 03:03:28;;;;;;;12.35;5.47;;;28.60;55.50;;;;;;6213999;23;20000;-78
2023/07/11 03:05:55;;;;;;;15.80;5.50;;;28.60;55.60;;;;;;6214439;23;19997;-77
2023/07/11 03:08:21;;;;;;;14.60;5.40;;;28.60;55.50;;;;;;6214422;23;20005;-77
2023/07/11 03:10:46;;;;;;;12.10;5.70;;;28.60;55.70;;;;;;6214336;23;20007;-77
2023/07/11 03:13:12;;;;;;;13.40;5.53;;;28.60;55.80;;;;;;6214271;23;20067;-77
2023/07/11 03:15:39;;;;;;;9.30;5.20;;;28.60;55.80;;;;;;6213970;23;20442;-77
2023/07/11 03:18:06;;;;;;;14.98;5.65;;;28.50;56.00;;;;;;6214130;23;20001;-76
2023/07/11 03:20:42;;;;;;;11.10;4.97;;;28.50;56.10;;;;;;6214461;23;20304;-77
2023/07/11 03:23:10;;;;;;;10.82;5.15;;;28.40;56.30;;;;;;6214214;23;20067;-77
2023/07/11 03:25:36;;;;;;;10.68;5.22;;;28.40;56.20;;;;;;6214304;23;20001;-77
2023/07/11 03:28:02;;;;;;;12.80;6.03;;;28.30;56.60;;;;;;6214013;23;20001;-76
2023/07/11 03:30:30;;;;;;;12.07;6.13;;;28.30;56.80;;;;;;6214157;23;20043;-78
2023/07/11 03:32:55;;;;;;;12.00;5.93;;;28.30;56.80;;;;;;6214282;23;20065;-77
2023/07/11 03:35:21;;;;;;;14.10;5.72;;;28.30;57.10;;;;;;6214244;23;20300;-77
2023/07/11 03:37:47;;;;;;;8.38;5.30;;;28.20;57.10;;;;;;6216383;23;20001;-77
2023/07/11 03:40:13;;;;;;;10.80;5.30;;;28.30;57.40;;;;;;6189299;23;20015;-77
2023/07/11 03:42:38;;;;;;;11.93;5.70;;;28.20;57.50;;;;;;6216102;23;20001;-76
2023/07/11 03:45:05;;;;;;;10.80;5.65;;;28.20;57.90;;;;;;6216072;23;20075;-76
2023/07/11 03:47:30;;;;;;;12.57;5.35;;;28.20;58.30;;;;;;6215931;23;20013;-76
2023/07/11 03:49:56;;;;;;;14.77;5.15;;;28.10;58.20;;;;;;6215916;23;20392;-77
2023/07/11 03:52:22;;;;;;;16.02;5.68;;;28.00;58.30;;;;;;6215748;23;20073;-76
2023/07/11 03:54:48;;;;;;;11.20;5.72;;;28.10;58.60;;;;;;6215904;23;20000;-77
2023/07/11 03:57:15;;;;;;;12.15;5.70;;;28.10;58.50;;;;;;6216038;23;20395;-76
2023/07/11 03:59:41;;;;;;;10.23;5.68;;;28.20;58.20;;;;;;6215984;23;20083;-77
2023/07/11 04:02:07;;;;;;;11.68;5.95;;;28.20;58.20;;;;;;6216034;23;20024;-76
2023/07/11 04:04:33;;;;;;;15.05;6.05;;;28.10;58.60;;;;;;6216180;23;20035;-78
2023/07/11 04:06:59;;;;;;;11.65;5.63;;;28.20;58.70;;;;;;6216001;23;20035;-75
2023/07/11 04:09:24;;;;;;;12.35;5.65;;;28.20;59.10;;;;;;6215898;23;20001;-78
2023/07/11 04:11:50;;;;;;;14.27;5.25;;;28.20;59.10;;;;;;6215693;23;20005;-76
2023/07/11 04:14:17;;;;;;;14.38;6.50;;;28.20;58.80;;;;;;6215701;23;20021;-77
2023/07/11 04:16:42;;;;;;;15.80;5.45;;;28.20;59.20;;;;;;6215809;23;20001;-78
2023/07/11 04:19:08;;;;;;;9.15;5.30;;;28.00;59.30;;;;;;6215622;23;20005;-77
2023/07/11 04:21:35;;;;;;;11.15;5.60;;;28.10;59.70;;;;;;6215843;23;20332;-78
2023/07/11 04:24:01;;;;;;;12.77;5.55;;;28.10;59.70;;;;;;6215659;23;20005;-77
2023/07/11 04:26:26;;;;;;;10.82;6.20;;;28.20;59.70;;;;;;6215852;23;19997;-77
2023/07/11 04:28:52;;;;;;;9.38;5.63;;;28.10;59.80;;;;;;6216327;23;20005;-79
2023/07/11 04:31:18;;;;;;;9.75;6.13;;;28.10;60.10;;;;;;6215712;23;20459;-78
2023/07/11 04:33:43;;;;;;;11.52;5.80;;;28.10;60.20;;;;;;6215738;23;20040;-78
2023/07/11 04:36:14;;;;;;;10.95;5.63;;;28.10;60.00;;;;;;6216141;23;20000;-78
2023/07/11 04:38:40;;;;;;;9.02;5.90;;;28.10;60.50;;;;;;6189262;23;20020;-78
2023/07/11 04:41:07;;;;;;;13.50;6.18;;;28.10;60.10;;;;;;6215877;23;19997;-77
2023/07/11 04:43:36;;;;;;;13.32;5.90;;;28.00;60.40;;;;;;6215956;23;20001;-78
2023/07/11 04:46:05;;;;;;;10.55;5.60;;;28.00;60.50;;;;;;6215702;23;20080;-78
2023/07/11 04:48:32;;;;;;;10.68;6.13;;;28.10;60.20;;;;;;6215476;23;20001;-78
2023/07/11 04:50:59;;;;;;;9.93;5.55;;;28.10;60.30;;;;;;6215799;23;20000;-78
2023/07/11 04:53:26;;;;;;;12.43;6.35;;;28.10;60.00;;;;;;6215494;23;20024;-77
2023/07/11 04:56:18;;;;;;;15.85;6.05;;;28.00;60.00;;;;;;6215016;23;20067;-79
2023/07/11 04:58:44;;;;;;;11.48;6.13;;;28.00;60.40;;;;;;6209921;23;20489;-77
2023/07/11 05:01:12;;;;;;;13.45;6.57;;;28.00;60.20;;;;;;6215473;23;20035;-78
2023/07/11 05:03:38;;;;;;;11.77;5.50;;;28.00;60.30;;;;;;6215293;23;20004;-77
2023/07/11 05:06:05;;;;;;;13.13;6.03;;;28.00;60.50;;;;;;6215605;23;20012;-77
2023/07/11 05:08:31;;;;;;;11.15;5.95;;;28.00;59.60;;;;;;6215257;23;20474;-77
2023/07/11 05:11:13;;;;;;;9.30;5.90;;;28.10;59.70;;;;;;6215242;23;20001;-78
2023/07/11 05:13:40;;;;;;;12.85;5.97;;;28.20;60.50;;;;;;6215600;23;20027;-77
2023/07/11 05:16:08;;;;;;;12.85;5.95;;;28.30;59.80;;;;;;6215034;23;20027;-76
2023/07/11 05:18:35;;;;;;;12.45;6.15;;;28.50;59.30;;;;;;6215072;23;20072;-77
2023/07/11 05:21:01;;;;;;;11.68;6.05;;;28.70;59.10;;;;;;6215570;23;20028;-77
2023/07/11 05:23:29;;;;;;;12.23;5.88;;;28.90;58.90;;;;;;6215292;23;19997;-77
2023/07/11 05:25:54;;;;;;;11.82;6.10;;;29.10;58.40;;;;;;6215335;23;20001;-76
2023/07/11 05:28:22;;;;;;;11.82;6.57;;;29.40;58.30;;;;;;6215267;23;20012;-77
2023/07/11 05:30:47;;;;;;;13.73;6.60;;;29.70;57.70;;;;;;6214880;23;20326;-77
2023/07/11 05:33:13;;;;;;;15.38;6.20;;;30.20;57.20;;;;;;6214975;23;20092;-78
2023/07/11 05:36:07;;;;;;;19.65;6.40;;;30.60;56.90;;;;;;6215309;23;20025;-78
2023/07/11 05:38:34;;;;;;;17.20;6.60;;;30.90;56.30;;;;;;6215499;23;20443;-78
2023/07/11 05:41:00;;;;;;;10.07;6.20;;;31.30;55.90;;;;;;6214925;23;20468;-78
2023/07/11 05:43:27;;;;;;;10.82;6.10;;;31.50;55.70;;;;;;6215067;23;20088;-78
2023/07/11 05:45:52;;;;;;;15.00;6.07;;;31.80;55.30;;;;;;6214832;23;20334;-78
2023/07/11 05:48:18;;;;;;;15.38;6.10;;;32.10;54.80;;;;;;6188019;23;20087;-76
2023/07/11 05:50:44;;;;;;;11.95;6.63;;;32.50;54.40;;;;;;6214335;23;20372;-77
2023/07/11 05:53:10;;;;;;;18.15;7.00;;;32.90;53.50;;;;;;6214450;23;20013;-77
2023/07/11 05:55:35;;;;;;;14.65;5.85;;;33.00;53.40;;;;;;6214773;23;19996;-79
2023/07/11 05:58:01;;;;;;;17.08;6.20;;;33.40;53.10;;;;;;6214705;23;20004;-78
2023/07/11 06:00:26;;;;;;;13.73;5.97;;;33.50;52.60;;;;;;6214257;23;20004;-77
2023/07/11 06:02:52;;;;;;;16.08;6.40;;;33.50;52.60;;;;;;6214866;23;20004;-78
2023/07/11 06:05:18;;;;;;;12.85;6.30;;;33.60;52.20;;;;;;6214708;23;20003;-78
2023/07/11 06:07:45;;;;;;;12.35;6.28;;;33.70;52.10;;;;;;6214671;23;20427;-77
2023/07/11 06:10:11;;;;;;;15.98;6.32;;;33.80;51.80;;;;;;6214660;23;20007;-77
2023/07/11 06:12:36;;;;;;;13.27;5.80;;;33.90;51.80;;;;;;6214534;23;20008;-78
2023/07/11 06:15:02;;;;;;;14.00;6.60;;;33.90;51.90;;;;;;6214420;23;20051;-77
2023/07/11 06:17:28;;;;;;;16.52;6.68;;;34.00;51.50;;;;;;6214620;23;20367;-78
2023/07/11 06:19:53;;;;;;;21.80;6.90;;;34.20;51.20;;;;;;6187626;23;20005;-78
2023/07/11 06:22:19;;;;;;;13.55;6.53;;;34.40;50.70;;;;;;6214403;23;20451;-78
2023/07/11 06:24:46;;;;;;;18.55;6.32;;;34.60;50.60;;;;;;6214463;23;20054;-77
2023/07/11 06:27:13;;;;;;;14.50;6.22;;;34.80;50.10;;;;;;6214215;23;20000;-78
2023/07/11 06:29:39;;;;;;;15.50;6.60;;;35.00;50.00;;;;;;6214556;23;20011;-77
2023/07/11 06:32:05;;;;;;;22.77;7.57;;;35.20;49.80;;;;;;6213755;23;20021;-77
2023/07/11 06:34:31;;;;;;;47.50;9.10;;;35.40;49.30;;;;;;6213996;23;20404;-77
2023/07/11 06:36:57;;;;;;;27.15;8.70;;;35.60;49.40;;;;;;6214172;23;20067;-77
2023/07/11 06:39:23;;;;;;;22.60;7.03;;;35.80;49.10;;;;;;6213855;23;20337;-77
2023/07/11 06:41:48;;;;;;;16.17;6.38;;;35.90;48.70;;;;;;6214220;23;20013;-77
2023/07/11 06:44:14;;;;;;;14.30;6.10;;;36.00;48.70;;;;;;6214091;23;20074;-79
2023/07/11 06:46:40;;;;;;;14.65;6.47;;;35.90;48.80;;;;;;6214544;23;20439;-79
2023/07/11 06:49:05;;;;;;;18.00;6.25;;;36.10;48.80;;;;;;6214225;23;20016;-78
2023/07/11 06:51:31;;;;;;;13.13;5.93;;;36.00;48.70;;;;;;6214349;23;20001;-78
2023/07/11 06:53:57;;;;;;;13.45;6.57;;;36.10;49.10;;;;;;6214198;23;20057;-77
2023/07/11 06:56:23;;;;;;;17.67;6.90;;;36.10;48.70;;;;;;6214281;23;20396;-76
2023/07/11 06:58:49;;;;;;;15.82;6.68;;;36.10;48.70;;;;;;6214075;23;20039;-78
2023/07/11 07:01:21;;;;;;;16.30;6.20;;;36.20;48.60;;;;;;6214424;23;20025;-79
2023/07/11 07:03:47;;;;;;;17.50;6.30;;;36.20;48.80;;;;;;6214814;23;20430;-78
2023/07/11 07:06:14;;;;;;;13.35;6.22;;;36.30;48.60;;;;;;6189374;23;20346;-77
2023/07/11 07:08:40;;;;;;;12.25;6.22;;;36.40;49.20;;;;;;6215125;23;20036;-78
2023/07/11 07:11:06;;;;;;;16.13;7.18;;;36.40;48.40;;;;;;6213605;23;20020;-78
2023/07/11 07:13:32;;;;;;;14.13;6.22;;;36.50;48.50;;;;;;6187968;23;20103;-78
2023/07/11 07:15:59;;;;;;;12.88;6.82;;;36.60;48.20;;;;;;6213952;23;20130;-78
2023/07/11 07:18:27;;;;;;;19.75;6.32;;;36.60;48.10;;;;;;6213727;23;20052;-78
2023/07/11 07:20:53;;;;;;;18.02;6.75;;;36.70;47.80;;;;;;6213730;23;20307;-77
2023/07/11 07:23:19;;;;;;;15.20;6.65;;;36.70;47.80;;;;;;6213657;23;19996;-78
2023/07/11 07:25:54;;;;;;;15.68;7.22;;;36.60;47.50;;;;;;6213864;23;20076;-78
2023/07/11 07:28:21;;;;;;;17.73;7.20;;;36.50;47.60;;;;;;6213823;23;20020;-77
2023/07/11 07:30:51;;;;;;;15.55;7.15;;;36.60;47.90;;;;;;6213654;23;20442;-77
2023/07/11 07:33:18;;;;;;;18.25;6.55;;;36.60;47.70;;;;;;6213830;23;20419;-78
2023/07/11 07:35:44;;;;;;;18.20;6.47;;;36.50;47.80;;;;;;6213798;23;20007;-77
2023/07/11 07:38:10;;;;;;;17.63;7.00;;;36.50;47.70;;;;;;6213735;23;20005;-80
2023/07/11 07:40:36;;;;;;;13.95;6.65;;;36.50;48.00;;;;;;6213844;23;20493;-78
2023/07/11 07:43:02;;;;;;;17.35;6.45;;;36.50;48.20;;;;;;6213703;23;20012;-78
2023/07/11 07:45:28;;;;;;;19.55;6.90;;;36.40;47.90;;;;;;6213796;23;20438;-78
2023/07/11 07:47:53;;;;;;;15.27;6.93;;;36.30;48.00;;;;;;6213482;23;20043;-78
2023/07/11 07:50:19;;;;;;;19.50;6.90;;;36.40;48.10;;;;;;6214157;23;20067;-79
2023/07/11 07:52:46;;;;;;;13.75;6.75;;;36.40;48.00;;;;;;6213505;23;20059;-78
2023/07/11 07:55:12;;;;;;;18.25;6.60;;;36.40;47.90;;;;;;6213459;23;20048;-77
2023/07/11 07:57:38;;;;;;;29.80;7.75;;;36.40;47.60;;;;;;6213553;23;20450;-78
2023/07/11 08:00:04;;;;;;;17.92;6.85;;;36.40;47.50;;;;;;6213124;23;20003;-79
2023/07/11 08:02:35;;;;;;;11.95;6.20;;;36.40;47.80;;;;;;6213649;23;20071;-78
2023/07/11 08:05:01;;;;;;;14.77;6.78;;;36.40;47.60;;;;;;6213398;23;20435;-78
2023/07/11 08:07:27;;;;;;;15.60;6.28;;;36.20;47.50;;;;;;6213354;23;20055;-77
2023/07/11 08:09:58;;;;;;;16.23;6.35;;;36.00;47.70;;;;;;6213749;23;20427;-78
2023/07/11 08:12:25;;;;;;;13.48;6.20;;;36.00;47.80;;;;;;6213414;23;20339;-78
2023/07/11 08:14:50;;;;;;;15.05;6.63;;;36.00;48.10;;;;;;6214711;23;20084;-78
2023/07/11 08:17:17;;;;;;;14.25;5.95;;;35.80;47.90;;;;;;6213621;23;20362;-78
2023/07/11 08:19:42;;;;;;;13.32;5.45;;;35.80;47.80;;;;;;6213480;23;20005;-78
2023/07/11 08:22:08;;;;;;;14.98;6.07;;;35.70;47.80;;;;;;6213086;23;20360;-79
2023/07/11 08:24:34;;;;;;;11.38;6.05;;;35.60;47.70;;;;;;6214802;23;20131;-78
2023/07/11 08:27:00;;;;;;;16.42;6.45;;;35.50;47.70;;;;;;6188636;23;20005;-76
2023/07/11 08:29:26;;;;;;;17.88;6.07;;;35.50;47.60;;;;;;6215206;23;20001;-78
2023/07/11 08:31:52;;;;;;;11.90;6.00;;;35.40;48.00;;;;;;6214681;23;20174;-78
2023/07/11 08:34:18;;;;;;;15.90;6.25;;;35.40;48.10;;;;;;6215049;23;20125;-78
2023/07/11 08:36:46;;;;;;;13.68;6.45;;;35.40;48.10;;;;;;6215172;23;20403;-79
2023/07/11 08:39:12;;;;;;;13.90;6.18;;;35.30;48.30;;;;;;6214960;23;20016;-79
2023/07/11 08:41:50;;;;;;;13.60;5.80;;;35.20;48.00;;;;;;6215416;23;20343;-77
2023/07/11 08:44:21;;;;;;;16.85;6.43;;;35.20;48.20;;;;;;6215238;23;20079;-79
2023/07/11 08:47:03;;;;;;;16.15;6.65;;;35.00;47.90;;;;;;6215287;23;20055;-79
2023/07/11 08:49:35;;;;;;;13.48;6.22;;;35.00;48.10;;;;;;6215817;23;20007;-80
2023/07/11 08:52:02;;;;;;;14.98;6.22;;;34.90;48.50;;;;;;6215097;23;20003;-78
2023/07/11 08:54:36;;;;;;;19.23;6.85;;;35.00;48.70;;;;;;6215428;23;20035;-66
2023/07/11 08:57:02;;;;;;;15.43;6.55;;;35.00;48.90;;;;;;6215431;23;19996;-78
2023/07/11 08:59:33;;;;;;;13.65;5.90;;;34.90;48.70;;;;;;6215665;23;20067;-79
2023/07/11 09:02:08;;;;;;;12.25;5.65;;;34.90;48.50;;;;;;6215232;23;19996;-78
2023/07/11 09:04:43;;;;;;;20.40;6.60;;;34.90;48.20;;;;;;6215281;23;20013;-79
2023/07/11 09:07:17;;;;;;;15.82;6.07;;;34.90;48.80;;;;;;6214959;23;20063;-80
2023/07/11 09:09:43;;;;;;;12.63;5.82;;;34.90;48.30;;;;;;6188130;23;20032;-78
2023/07/11 09:12:24;;;;;;;13.50;5.80;;;34.80;48.30;;;;;;6214893;23;20000;-79
2023/07/11 09:15:04;;;;;;;15.15;6.28;;;34.80;47.80;;;;;;6214930;23;20008;-78
2023/07/11 09:17:41;;;;;;;14.65;6.18;;;34.90;48.20;;;;;;6215350;23;20062;-78
2023/07/11 09:20:14;;;;;;;12.80;6.68;;;34.90;48.60;;;;;;6215465;23;20311;-79
2023/07/11 09:22:46;;;;;;;10.95;6.18;;;34.90;48.70;;;;;;6215587;23;20039;-78
2023/07/11 09:25:21;;;;;;;14.93;5.90;;;34.90;48.50;;;;;;6215537;23;19996;-78
2023/07/11 09:27:56;;;;;;;12.68;5.43;;;34.90;47.50;;;;;;6215261;23;20036;-79
2023/07/11 09:30:43;;;;;;;14.98;5.55;;;34.90;47.00;;;;;;6214846;23;20095;-79
2023/07/11 09:33:14;;;;;;;17.23;6.10;;;34.90;46.60;;;;;;6214935;23;20052;-78
2023/07/11 09:35:42;;;;;;;11.90;5.60;;;35.00;46.10;;;;;;6214859;23;20004;-79
2023/07/11 09:38:34;;;;;;;12.60;5.45;;;34.90;45.40;;;;;;6214833;23;20012;-79
2023/07/11 09:41:02;;;;;;;14.02;5.45;;;34.90;45.50;;;;;;6214053;23;20005;-80
2023/07/11 09:43:28;;;;;;;14.93;5.30;;;34.90;45.20;;;;;;6214676;23;20008;-78
2023/07/11 09:45:54;;;;;;;14.10;5.43;;;35.00;44.80;;;;;;6215090;23;19997;-79
2023/07/11 09:48:28;;;;;;;16.13;5.47;;;35.00;44.40;;;;;;6215575;23;20008;-80
2023/07/11 09:51:00;;;;;;;14.52;5.18;;;35.00;44.80;;;;;;6215199;23;20028;-79
2023/07/11 09:53:29;;;;;;;11.60;5.40;;;35.00;44.40;;;;;;6214711;23;20021;-78
2023/07/11 09:56:00;;;;;;;16.20;5.18;;;35.00;44.20;;;;;;6214997;23;20056;-78
2023/07/11 09:58:32;;;;;;;11.23;5.47;;;35.10;43.90;;;;;;6214576;23;20011;-78
2023/07/11 10:01:03;;;;;;;16.73;5.38;;;35.10;43.80;;;;;;6214592;23;19996;-78
2023/07/11 10:03:34;;;;;;;12.52;4.95;;;35.10;43.30;;;;;;6215017;23;20001;-78
2023/07/11 10:06:01;;;;;;;13.55;5.22;;;35.20;43.60;;;;;;6214964;23;20007;-76
2023/07/11 10:08:31;;;;;;;10.90;5.18;;;35.20;43.20;;;;;;6215402;23;20086;-80
2023/07/11 10:11:03;;;;;;;11.50;5.40;;;35.10;43.00;;;;;;6214768;23;19997;-79
2023/07/11 10:13:29;;;;;;;9.50;4.45;;;35.20;43.00;;;;;;6214967;23;20324;-78
2023/07/11 10:15:57;;;;;;;13.90;5.32;;;35.20;43.00;;;;;;6214654;23;20000;-78
2023/07/11 10:18:35;;;;;;;8.32;4.82;;;35.20;42.50;;;;;;6214489;23;20001;-79
2023/07/11 10:21:19;;;;;;;13.07;4.95;;;35.20;42.20;;;;;;6215020;23;20490;-79
2023/07/11 10:23:48;;;;;;;14.40;4.82;;;35.20;42.10;;;;;;6214745;23;20008;-78
2023/07/11 10:26:20;;;;;;;11.70;4.75;;;35.30;41.80;;;;;;6214574;23;20050;-79
2023/07/11 10:28:55;;;;;;;17.08;4.90;;;35.30;42.00;;;;;;6215217;23;20012;-79
2023/07/11 10:31:27;;;;;;;9.98;4.40;;;35.40;41.50;;;;;;6214227;23;20016;-78
2023/07/11 10:34:15;;;;;;;14.75;4.95;;;35.40;40.70;;;;;;6187960;23;20068;-80
2023/07/11 10:36:53;;;;;;;10.13;4.47;;;35.50;41.50;;;;;;6215089;23;20016;-78
2023/07/11 10:39:27;;;;;;;16.25;4.40;;;35.50;40.60;;;;;;6214591;23;20079;-79
2023/07/11 10:42:25;;;;;;;9.48;4.07;;;35.50;39.90;;;;;;6214890;23;20496;-79
2023/07/11 10:45:02;;;;;;;12.38;4.68;;;35.60;40.30;;;;;;6107471;23;20119;-78
2023/07/11 10:47:33;;;;;;;11.35;4.10;;;35.70;40.10;;;;;;6214203;23;20004;-78
2023/07/11 10:50:06;;;;;;;10.25;3.88;;;35.70;39.00;;;;;;6187553;23;20013;-78
2023/07/11 10:52:35;;;;;;;13.75;4.43;;;35.60;38.50;;;;;;6187527;23;20005;-79
2023/07/11 10:55:09;;;;;;;11.27;4.15;;;35.70;38.40;;;;;;6214236;23;20008;-80
2023/07/11 10:57:50;;;;;;;14.95;4.07;;;35.70;38.70;;;;;;6214259;23;19997;-80
2023/07/11 11:00:31;;;;;;;12.98;4.47;;;35.80;38.90;;;;;;6188327;23;20059;-79
2023/07/11 11:03:25;;;;;;;10.45;4.35;;;35.90;39.00;;;;;;6214457;23;20001;-79
2023/07/11 11:06:14;;;;;;;9.95;4.30;;;35.90;38.20;;;;;;6214486;23;20005;-79
2023/07/11 11:08:57;;;;;;;14.32;4.47;;;35.90;38.70;;;;;;6214147;23;20001;-79
2023/07/11 11:11:47;;;;;;;6.63;4.40;;;35.80;38.70;;;;;;6214309;23;20017;-79
2023/07/11 11:14:30;;;;;;;7.90;4.43;;;35.90;38.70;;;;;;6213960;23;20024;-78
2023/07/11 11:17:02;;;;;;;;;;;36.00;39.00;;;;;;6215105;23;20004;-79
2023/07/11 11:19:55;;;;;;;15.13;4.60;;;36.00;38.90;;;;;;6214011;23;19966;-78
2023/07/11 11:22:25;;;;;;;;;;;36.00;39.10;;;;;;6214881;23;20083;-79
2023/07/11 11:24:57;;;;;;;11.70;4.78;;;36.00;39.00;;;;;;6187587;23;19947;-78
2023/07/11 11:27:36;;;;;;;12.68;5.00;;;36.10;38.80;;;;;;6214169;23;20326;-80
2023/07/11 11:30:28;;;;;;;12.30;4.80;;;36.10;38.60;;;;;;6214580;23;20009;-80
2023/07/11 11:33:12;;;;;;;11.73;4.45;;;36.10;38.30;;;;;;6214079;23;20019;-79
2023/07/11 11:35:45;;;;;;;9.55;4.25;;;36.10;38.20;;;;;;6214331;23;20005;-77
2023/07/11 11:38:29;;;;;;;;;;;36.00;38.00;;;;;;6214927;23;20039;-79
2023/07/11 11:40:59;;;;;;;13.57;4.50;;;36.00;38.10;;;;;;6215004;23;19946;-77
2023/07/11 11:43:26;;;;;;;8.13;4.32;;;36.00;37.80;;;;;;6214709;23;20039;-78
2023/07/11 11:45:53;;;;;;;8.57;3.53;;;36.20;37.30;;;;;;6214604;23;20001;-80
2023/07/11 11:48:26;;;;;;;14.43;4.30;;;36.20;37.00;;;;;;6214970;23;20001;-77
2023/07/11 11:50:52;;;;;;;16.20;4.55;;;36.30;36.80;;;;;;6214235;23;20008;-79
2023/07/11 11:53:22;;;;;;;9.73;4.30;;;36.30;36.50;;;;;;6213761;23;20036;-79
2023/07/11 11:55:59;;;;;;;11.38;4.13;;;36.30;37.00;;;;;;6214529;23;20008;-81
2023/07/11 11:58:27;;;;;;;9.05;4.00;;;36.40;37.20;;;;;;6215245;23;20024;-79
2023/07/11 12:00:55;;;;;;;10.02;3.92;;;36.30;35.60;;;;;;6215891;23;20028;-77
2023/07/11 12:03:45;;;;;;;11.85;4.30;;;36.40;35.60;;;;;;6216216;23;20005;-78
2023/07/11 12:06:28;;;;;;;11.73;4.53;;;36.30;36.30;;;;;;6198269;23;20483;-79
2023/07/11 12:09:31;;;;;;;12.50;4.32;;;36.40;35.90;;;;;;6216070;23;20039;-79
2023/07/11 12:12:03;;;;;;;11.27;3.90;;;36.40;36.30;;;;;;6155289;23;20020;-79
2023/07/11 12:14:34;;;;;;;11.07;3.65;;;36.40;35.90;;;;;;6216337;23;20016;-79
2023/07/11 12:17:00;;;;;;;11.07;3.90;;;36.50;35.90;;;;;;6216954;23;19996;-80
2023/07/11 12:19:41;;;;;;;8.77;3.60;;;36.50;35.70;;;;;;6216138;23;20012;-80
2023/07/11 12:22:08;;;;;;;9.40;4.00;;;36.40;35.60;;;;;;6189313;23;20012;-78
2023/07/11 12:24:34;;;;;;;12.20;4.03;;;36.50;35.50;;;;;;6216039;23;20008;-81
2023/07/11 12:27:30;;;;;;;12.63;3.78;;;36.60;35.50;;;;;;6216147;23;19997;-79
2023/07/11 12:29:56;;;;;;;10.02;4.00;;;36.60;35.50;;;;;;6215798;23;20008;-80
2023/07/11 12:32:31;;;;;;;8.25;4.00;;;36.60;35.10;;;;;;6215806;23;20024;-80
2023/07/11 12:35:03;;;;;;;7.88;3.72;;;36.50;35.70;;;;;;6215713;23;20015;-79
2023/07/11 12:37:34;;;;;;;;;;;36.60;35.70;;;;;;6216418;23;20312;-79
2023/07/11 12:40:17;;;;;;;15.70;4.15;;;36.50;35.40;;;;;;6215544;23;19899;-80
2023/07/11 12:42:55;;;;;;;11.48;3.75;;;36.50;36.20;;;;;;6215600;23;20001;-79
2023/07/11 12:45:22;;;;;;;15.35;3.60;;;36.60;35.50;;;;;;6215166;23;20012;-80
2023/07/11 12:47:52;;;;;;;14.90;3.65;;;36.60;35.70;;;;;;6215236;23;20001;-79
2023/07/11 12:50:25;;;;;;;12.40;3.83;;;36.60;35.90;;;;;;6215873;23;20007;-80